createdAt,value
2018-07-16T00:00:15.683Z,23.47
2018-07-16T00:02:43.682Z,23.47
2018-07-16T00:05:11.770Z,23.45
2018-07-16T00:07:39.774Z,23.39
2018-07-16T00:10:07.818Z,23.34
2018-07-16T00:12:35.812Z,23.28
2018-07-16T00:15:03.853Z,23.24
2018-07-16T00:17:32.059Z,23.22
2018-07-16T00:20:00.032Z,23.16
2018-07-16T00:22:28.074Z,23.15
2018-07-16T00:24:56.548Z,23.05
2018-07-16T00:27:24.626Z,23.04
2018-07-16T00:29:52.592Z,23.05
2018-07-16T00:32:20.602Z,23.13
2018-07-16T00:34:48.565Z,23.17
2018-07-16T00:37:16.696Z,23.15
2018-07-16T00:39:45.041Z,23.16
2018-07-16T00:42:13.135Z,23.09
2018-07-16T00:44:41.095Z,23.06
2018-07-16T00:47:09.044Z,22.92
2018-07-16T00:49:37.477Z,22.82
2018-07-16T00:52:05.630Z,22.78
2018-07-16T00:54:33.908Z,22.69
2018-07-16T00:57:01.907Z,22.71
2018-07-16T00:59:30.037Z,22.70
2018-07-16T01:01:58.005Z,22.71
2018-07-16T01:04:25.983Z,22.72
2018-07-16T01:06:54.174Z,22.69
2018-07-16T01:09:22.264Z,22.65
2018-07-16T01:11:50.290Z,22.66
2018-07-16T01:14:18.236Z,22.63
2018-07-16T01:16:46.241Z,22.72
2018-07-16T01:19:14.464Z,22.67
2018-07-16T01:21:43.019Z,22.67
2018-07-16T01:24:11.264Z,22.63
2018-07-16T01:26:39.525Z,22.61
2018-07-16T01:29:07.495Z,22.62
2018-07-16T01:31:35.529Z,22.55
2018-07-16T01:34:03.612Z,22.49
2018-07-16T01:36:31.745Z,22.40
2018-07-16T01:38:59.822Z,22.30
2018-07-16T01:41:27.976Z,22.25
2018-07-16T01:43:55.934Z,22.09
2018-07-16T01:46:24.047Z,22.15
2018-07-16T01:48:52.044Z,22.13
2018-07-16T01:51:20.074Z,21.97
2018-07-16T01:53:48.056Z,21.90
2018-07-16T01:56:16.059Z,21.98
2018-07-16T01:58:44.059Z,21.84
2018-07-16T02:01:12.041Z,21.85
2018-07-16T02:03:39.909Z,21.84
2018-07-16T02:06:08.290Z,21.76
2018-07-16T02:08:36.330Z,21.70
2018-07-16T02:11:04.311Z,21.60
2018-07-16T02:13:32.282Z,21.53
2018-07-16T02:16:00.738Z,21.46
2018-07-16T02:18:28.682Z,21.41
2018-07-16T02:20:57.593Z,21.34
2018-07-16T02:25:58.398Z,21.24
2018-07-16T02:28:26.543Z,21.16
2018-07-16T02:30:54.533Z,21.71
2018-07-16T02:33:22.538Z,21.78
2018-07-16T02:35:50.541Z,21.94
2018-07-16T02:38:18.510Z,21.94
2018-07-16T02:40:47.027Z,22.08
2018-07-16T02:43:15.024Z,22.01
2018-07-16T02:45:42.970Z,21.97
2018-07-16T02:48:11.013Z,22.03
2018-07-16T02:50:38.906Z,21.94
2018-07-16T02:53:07.117Z,21.97
2018-07-16T02:55:35.150Z,21.90
2018-07-16T02:58:03.199Z,21.85
2018-07-16T03:00:31.265Z,21.84
2018-07-16T03:02:59.294Z,21.73
2018-07-16T03:05:27.331Z,21.73
2018-07-16T03:07:55.233Z,21.75
2018-07-16T03:10:23.284Z,21.79
2018-07-16T03:12:51.238Z,21.85
2018-07-16T03:15:19.268Z,21.89
2018-07-16T03:17:47.763Z,22.03
2018-07-16T03:20:16.274Z,21.91
2018-07-16T03:22:44.266Z,22.02
2018-07-16T03:25:12.200Z,22.04
2018-07-16T03:27:40.322Z,22.00
2018-07-16T03:30:08.314Z,21.98
2018-07-16T03:32:36.249Z,21.94
2018-07-16T03:35:04.207Z,21.99
2018-07-16T03:37:32.153Z,22.00
2018-07-16T03:40:00.188Z,21.94
2018-07-16T03:42:28.240Z,22.04
2018-07-16T03:44:56.246Z,21.99
2018-07-16T03:47:24.252Z,22.01
2018-07-16T03:49:52.314Z,21.99
2018-07-16T03:52:20.349Z,22.04
2018-07-16T03:54:48.329Z,22.02
2018-07-16T03:57:16.276Z,22.02
2018-07-16T03:59:44.200Z,22.01
2018-07-16T04:02:12.346Z,22.05
2018-07-16T04:04:40.411Z,22.17
2018-07-16T04:07:08.785Z,22.09
2018-07-16T04:09:36.779Z,22.11
2018-07-16T04:12:04.822Z,22.12
2018-07-16T04:14:32.805Z,22.21
2018-07-16T04:17:00.745Z,22.24
2018-07-16T04:19:28.691Z,22.26
2018-07-16T04:21:56.672Z,22.29
2018-07-16T04:24:24.715Z,22.34
2018-07-16T04:26:52.746Z,22.40
2018-07-16T04:29:20.776Z,22.39
2018-07-16T04:31:48.748Z,22.41
2018-07-16T04:34:16.679Z,22.48
2018-07-16T04:36:44.632Z,22.36
2018-07-16T04:39:12.660Z,22.32
2018-07-16T04:41:40.715Z,22.36
2018-07-16T04:44:08.648Z,22.48
2018-07-16T04:46:36.679Z,22.59
2018-07-16T04:49:04.850Z,22.59
2018-07-16T04:51:32.933Z,22.68
2018-07-16T04:54:00.920Z,22.68
2018-07-16T04:56:29.797Z,22.63
2018-07-16T04:58:57.731Z,22.54
2018-07-16T05:01:25.703Z,22.62
2018-07-16T05:03:54.155Z,22.61
2018-07-16T05:09:16.150Z,22.53
2018-07-16T05:11:44.093Z,22.61
2018-07-16T05:14:12.083Z,22.66
2018-07-16T05:16:40.170Z,22.72
2018-07-16T05:19:08.121Z,22.70
2018-07-16T05:21:36.282Z,22.75
2018-07-16T05:24:04.287Z,22.80
2018-07-16T05:26:32.356Z,22.92
2018-07-16T05:29:00.351Z,22.97
2018-07-16T05:31:28.439Z,23.01
2018-07-16T05:33:56.674Z,23.12
2018-07-16T05:36:24.806Z,23.21
2018-07-16T05:38:53.116Z,23.23
2018-07-16T05:41:21.153Z,23.14
2018-07-16T05:43:49.187Z,23.11
2018-07-16T05:46:17.356Z,23.20
2018-07-16T05:48:45.422Z,23.31
2018-07-16T05:51:13.927Z,23.46
2018-07-16T05:53:42.261Z,23.54
2018-07-16T05:56:10.525Z,23.63
2018-07-16T05:58:38.836Z,23.52
2018-07-16T06:01:07.319Z,23.48
2018-07-16T06:03:35.511Z,23.53
2018-07-16T06:06:03.877Z,23.57
2018-07-16T06:08:32.706Z,23.47
2018-07-16T06:11:00.732Z,23.61
2018-07-16T06:13:28.894Z,23.55
2018-07-16T06:15:57.421Z,23.63
2018-07-16T06:18:25.630Z,23.51
2018-07-16T06:20:53.803Z,23.70
2018-07-16T06:23:21.908Z,23.73
2018-07-16T06:25:49.892Z,23.75
2018-07-16T06:28:17.968Z,23.83
2018-07-16T06:30:46.923Z,23.84
2018-07-16T06:33:15.157Z,23.91
2018-07-16T06:35:43.322Z,23.89
2018-07-16T06:38:11.412Z,23.97
2018-07-16T06:40:39.417Z,23.99
2018-07-16T06:43:08.087Z,23.93
2018-07-16T06:45:36.147Z,24.04
2018-07-16T06:48:04.102Z,24.10
2018-07-16T06:50:32.159Z,24.25
2018-07-16T06:53:00.211Z,24.09
2018-07-16T06:55:28.375Z,24.14
2018-07-16T06:57:56.354Z,24.15
2018-07-16T07:00:24.353Z,24.33
2018-07-16T07:02:52.689Z,24.37
2018-07-16T07:05:20.762Z,24.48
2018-07-16T07:07:48.757Z,24.46
2018-07-16T07:10:16.811Z,24.56
2018-07-16T07:12:44.782Z,24.54
2018-07-16T07:15:12.838Z,24.54
2018-07-16T07:17:40.950Z,24.63
2018-07-16T07:20:09.050Z,24.74
2018-07-16T07:22:37.056Z,24.98
2018-07-16T07:25:05.129Z,25.04
2018-07-16T07:27:33.175Z,25.03
2018-07-16T07:30:01.113Z,24.93
2018-07-16T07:32:29.221Z,25.10
2018-07-16T07:34:57.202Z,25.21
2018-07-16T07:37:25.190Z,25.19
2018-07-16T07:39:53.185Z,25.26
2018-07-16T07:42:21.156Z,25.25
2018-07-16T07:44:49.209Z,25.36
2018-07-16T07:47:17.191Z,25.33
2018-07-16T07:49:45.286Z,25.41
2018-07-16T07:52:13.266Z,25.48
2018-07-16T07:54:41.347Z,25.54
2018-07-16T07:57:09.294Z,25.66
2018-07-16T07:59:37.226Z,25.84
2018-07-16T08:02:05.313Z,26.02
2018-07-16T08:04:33.284Z,26.00
2018-07-16T08:07:06.736Z,26.06
2018-07-16T08:09:34.853Z,26.04
2018-07-16T08:12:03.066Z,26.02
2018-07-16T08:14:31.052Z,25.90
2018-07-16T08:16:59.087Z,26.08
2018-07-16T08:19:27.034Z,26.01
2018-07-16T08:21:55.371Z,26.03
2018-07-16T08:24:23.303Z,26.01
2018-07-16T08:26:51.328Z,26.21
2018-07-16T08:29:19.453Z,26.18
2018-07-16T08:31:47.504Z,26.20
2018-07-16T08:34:15.479Z,26.27
2018-07-16T08:36:43.487Z,26.16
2018-07-16T08:39:11.554Z,26.15
2018-07-16T08:41:39.678Z,26.34
2018-07-16T08:44:08.068Z,26.47
2018-07-16T08:46:37.237Z,26.50
2018-07-16T08:49:13.902Z,26.56
2018-07-16T08:51:43.085Z,26.48
2018-07-16T08:54:11.131Z,26.32
2018-07-16T08:56:43.533Z,26.44
2018-07-16T08:59:11.969Z,26.35
2018-07-16T09:01:41.859Z,26.54
2018-07-16T09:04:09.916Z,26.61
2018-07-16T09:06:37.918Z,26.53
2018-07-16T09:09:06.255Z,26.43
2018-07-16T09:11:34.198Z,26.53
2018-07-16T09:14:02.822Z,26.56
2018-07-16T09:16:31.088Z,26.55
2018-07-16T09:19:04.188Z,26.60
2018-07-16T09:21:32.243Z,26.50
2018-07-16T09:24:00.239Z,26.62
2018-07-16T09:26:28.354Z,26.87
2018-07-16T09:28:56.630Z,27.11
2018-07-16T09:31:24.721Z,26.97
2018-07-16T09:33:52.836Z,26.87
2018-07-16T09:36:20.932Z,26.81
2018-07-16T09:38:48.887Z,26.75
2018-07-16T09:41:16.871Z,26.70
2018-07-16T09:43:44.878Z,26.67
2018-07-16T09:46:12.948Z,27.01
2018-07-16T09:48:40.956Z,27.38
2018-07-16T09:51:08.947Z,27.70
2018-07-16T09:53:37.001Z,27.83
2018-07-16T09:56:05.284Z,27.68
2018-07-16T09:58:33.538Z,27.77
2018-07-16T10:01:07.159Z,27.51
2018-07-16T10:03:35.221Z,27.42
2018-07-16T10:06:03.220Z,27.26
2018-07-16T10:08:31.440Z,27.12
2018-07-16T10:10:59.937Z,27.24
2018-07-16T10:13:28.015Z,27.41
2018-07-16T10:15:56.005Z,27.31
2018-07-16T10:18:24.017Z,27.34
2018-07-16T10:20:52.028Z,27.25
2018-07-16T10:23:20.202Z,27.32
2018-07-16T10:25:48.425Z,27.38
2018-07-16T10:28:16.399Z,27.43
2018-07-16T10:30:44.293Z,27.42
2018-07-16T10:33:12.284Z,27.22
2018-07-16T10:35:40.355Z,27.27
2018-07-16T10:38:08.515Z,27.29
2018-07-16T10:40:36.490Z,27.31
2018-07-16T10:43:04.817Z,27.45
2018-07-16T10:45:32.843Z,27.52
2018-07-16T10:48:00.917Z,27.63
2018-07-16T10:50:28.912Z,27.71
2018-07-16T10:52:56.961Z,27.83
2018-07-16T10:55:24.995Z,27.84
2018-07-16T10:57:53.102Z,27.75
2018-07-16T11:00:21.681Z,27.95
2018-07-16T11:02:49.701Z,27.75
2018-07-16T11:05:17.705Z,27.64
2018-07-16T11:07:45.734Z,27.78
2018-07-16T11:10:13.747Z,27.83
2018-07-16T11:12:41.798Z,27.74
2018-07-16T11:15:09.846Z,27.80
2018-07-16T11:17:38.084Z,27.82
2018-07-16T11:20:07.628Z,27.93
2018-07-16T11:22:35.710Z,27.89
2018-07-16T11:25:03.867Z,27.71
2018-07-16T11:27:31.820Z,27.56
2018-07-16T11:29:59.818Z,27.63
2018-07-16T11:32:27.811Z,27.67
2018-07-16T11:34:55.890Z,27.77
2018-07-16T11:37:23.888Z,27.69
2018-07-16T11:39:52.430Z,27.68
2018-07-16T11:42:20.460Z,27.85
2018-07-16T11:44:48.591Z,27.94
2018-07-16T11:47:16.516Z,28.01
2018-07-16T11:49:44.432Z,28.11
2018-07-16T11:52:12.324Z,28.09
2018-07-16T11:54:40.345Z,28.03
2018-07-16T11:57:08.326Z,28.27
2018-07-16T11:59:36.336Z,28.23
2018-07-16T12:02:04.859Z,28.27
2018-07-16T12:04:32.876Z,28.29
2018-07-16T12:07:01.163Z,28.08
2018-07-16T12:09:29.072Z,27.96
2018-07-16T12:11:57.042Z,28.00
2018-07-16T12:14:24.990Z,28.09
2018-07-16T12:16:52.990Z,28.08
2018-07-16T12:19:21.209Z,27.99
2018-07-16T12:21:49.337Z,28.10
2018-07-16T12:24:17.517Z,28.00
2018-07-16T12:26:45.557Z,28.10
2018-07-16T12:29:13.727Z,28.15
2018-07-16T12:31:41.732Z,28.18
2018-07-16T12:34:09.736Z,28.11
2018-07-16T12:36:38.025Z,28.22
2018-07-16T12:39:06.666Z,28.18
2018-07-16T12:41:34.756Z,28.18
2018-07-16T12:44:03.088Z,28.19
2018-07-16T12:46:31.103Z,28.37
2018-07-16T12:48:59.139Z,28.78
2018-07-16T12:51:27.110Z,29.32
2018-07-16T12:53:55.075Z,29.51
2018-07-16T12:56:23.045Z,29.49
2018-07-16T12:58:51.047Z,29.74
2018-07-16T13:01:19.058Z,29.80
2018-07-16T13:03:47.367Z,29.80
2018-07-16T13:06:19.759Z,29.67
2018-07-16T13:08:47.814Z,29.76
2018-07-16T13:11:15.751Z,29.85
2018-07-16T13:13:44.283Z,30.04
2018-07-16T13:16:12.264Z,30.21
2018-07-16T13:18:40.629Z,30.16
2018-07-16T13:21:08.807Z,30.09
2018-07-16T13:23:36.981Z,30.30
2018-07-16T13:26:05.096Z,30.26
2018-07-16T13:28:33.220Z,30.51
2018-07-16T13:31:01.254Z,30.08
2018-07-16T13:33:29.182Z,30.03
2018-07-16T13:35:57.182Z,30.28
2018-07-16T13:38:25.261Z,30.21
2018-07-16T13:40:53.233Z,30.30
2018-07-16T13:43:21.237Z,30.10
2018-07-16T13:45:49.218Z,29.93
2018-07-16T13:48:18.127Z,29.96
2018-07-16T13:50:46.139Z,30.05
2018-07-16T13:53:14.132Z,30.02
2018-07-16T13:55:42.088Z,30.25
2018-07-16T13:58:10.071Z,30.52
2018-07-16T14:00:37.978Z,30.43
2018-07-16T14:03:05.998Z,30.35
2018-07-16T14:05:34.184Z,30.44
2018-07-16T14:08:02.228Z,30.18
2018-07-16T14:10:30.278Z,30.14
2018-07-16T14:12:58.193Z,30.30
2018-07-16T14:15:26.189Z,29.96
2018-07-16T14:17:54.325Z,30.04
2018-07-16T14:20:24.043Z,30.43
2018-07-16T14:22:52.139Z,30.49
2018-07-16T14:25:20.171Z,30.40
2018-07-16T14:27:48.131Z,30.04
2018-07-16T14:30:16.248Z,30.10
2018-07-16T14:32:44.223Z,30.02
2018-07-16T14:35:12.498Z,29.84
2018-07-16T14:37:40.452Z,29.88
2018-07-16T14:40:08.553Z,29.86
2018-07-16T14:42:36.400Z,29.88
2018-07-16T14:45:04.533Z,30.21
2018-07-16T14:47:32.697Z,30.26
2018-07-16T14:50:00.716Z,30.50
2018-07-16T14:52:30.085Z,30.53
2018-07-16T14:54:59.642Z,30.44
2018-07-16T14:57:29.448Z,30.31
2018-07-16T15:00:00.375Z,30.07
2018-07-16T15:02:30.696Z,30.13
2018-07-16T15:05:01.225Z,30.26
2018-07-16T15:07:34.470Z,30.23
2018-07-16T15:10:04.932Z,30.11
2018-07-16T15:12:37.574Z,29.81
2018-07-16T15:15:09.774Z,29.73
2018-07-16T15:17:39.598Z,29.66
2018-07-16T15:20:07.779Z,29.77
2018-07-16T15:22:35.716Z,30.06
2018-07-16T15:25:03.762Z,29.92
2018-07-16T15:27:31.728Z,29.82
2018-07-16T15:29:59.666Z,29.80
2018-07-16T15:32:27.691Z,29.92
2018-07-16T15:34:55.682Z,29.77
2018-07-16T15:37:23.691Z,29.93
2018-07-16T15:39:51.689Z,29.72
2018-07-16T15:42:19.665Z,29.72
2018-07-16T15:44:47.968Z,29.87
2018-07-16T15:47:15.992Z,29.73
2018-07-16T15:49:44.069Z,29.62
2018-07-16T15:52:12.050Z,29.59
2018-07-16T15:54:40.055Z,29.48
2018-07-16T15:57:08.122Z,29.44
2018-07-16T15:59:36.303Z,29.53
2018-07-16T16:02:04.734Z,29.50
2018-07-16T16:04:32.741Z,29.65
2018-07-16T16:07:00.783Z,29.50
2018-07-16T16:09:28.854Z,29.40
2018-07-16T16:11:56.913Z,29.10
2018-07-16T16:14:24.868Z,29.26
2018-07-16T16:16:52.850Z,29.39
2018-07-16T16:19:20.882Z,29.48
2018-07-16T16:21:48.936Z,29.33
2018-07-16T16:24:16.982Z,29.34
2018-07-16T16:26:44.978Z,29.29
2018-07-16T16:29:12.924Z,29.30
2018-07-16T16:31:40.887Z,29.17
2018-07-16T16:34:08.862Z,29.19
2018-07-16T16:36:36.906Z,28.94
2018-07-16T16:39:06.853Z,29.01
2018-07-16T16:41:35.151Z,29.09
2018-07-16T16:44:03.251Z,29.00
2018-07-16T16:46:34.820Z,28.85
2018-07-16T16:49:02.891Z,28.33
2018-07-16T16:51:30.874Z,27.83
2018-07-16T16:53:58.863Z,27.52
2018-07-16T16:56:26.961Z,27.36
2018-07-16T16:58:55.041Z,27.31
2018-07-16T17:01:23.246Z,27.19
2018-07-16T17:03:51.335Z,27.15
2018-07-16T17:06:19.749Z,27.05
2018-07-16T17:08:48.304Z,26.95
2018-07-16T17:11:16.260Z,26.94
2018-07-16T17:13:44.400Z,26.84
2018-07-16T17:16:12.405Z,26.76
2018-07-16T17:18:40.778Z,26.73
2018-07-16T17:21:08.927Z,26.63
2018-07-16T17:23:37.015Z,26.59
2018-07-16T17:26:05.196Z,26.54
2018-07-16T17:28:33.376Z,26.49
2018-07-16T17:31:01.460Z,26.38
2018-07-16T17:33:29.514Z,26.32
2018-07-16T17:35:57.460Z,26.23
2018-07-16T17:38:25.500Z,26.10
2018-07-16T17:40:53.547Z,26.01
2018-07-16T17:43:22.352Z,25.89
2018-07-16T17:45:50.661Z,25.79
2018-07-16T17:48:18.718Z,25.73
2018-07-16T17:50:46.758Z,25.63
2018-07-16T17:53:14.778Z,25.37
2018-07-16T17:55:42.998Z,25.16
2018-07-16T17:58:11.650Z,24.91
2018-07-16T18:00:39.844Z,24.73
2018-07-16T18:03:08.670Z,24.68
2018-07-16T18:05:36.871Z,24.73
2018-07-16T18:08:04.898Z,24.67
2018-07-16T18:10:33.410Z,24.62
2018-07-16T18:13:01.576Z,24.51
2018-07-16T18:15:29.648Z,24.47
2018-07-16T18:17:58.223Z,24.25
2018-07-16T18:20:26.568Z,24.10
2018-07-16T18:22:54.558Z,24.08
2018-07-16T18:25:23.002Z,24.00
2018-07-16T18:27:51.530Z,23.91
2018-07-16T18:30:19.575Z,23.78
2018-07-16T18:32:47.820Z,23.76
2018-07-16T18:35:17.079Z,23.80
2018-07-16T18:37:45.885Z,23.64
2018-07-16T18:40:13.844Z,23.56
2018-07-16T18:42:41.818Z,23.45
2018-07-16T18:45:09.828Z,23.40
2018-07-16T18:47:38.245Z,23.36
2018-07-16T18:50:08.964Z,23.41
2018-07-16T18:52:37.724Z,23.40
2018-07-16T18:55:06.021Z,23.46
2018-07-16T18:57:34.202Z,23.52
2018-07-16T19:00:02.727Z,23.65
2018-07-16T19:02:31.061Z,23.70
2018-07-16T19:04:59.169Z,23.70
2018-07-16T19:07:27.464Z,23.77
2018-07-16T19:09:56.950Z,23.81
2018-07-16T19:12:25.186Z,23.69
2018-07-16T19:14:53.343Z,23.76
2018-07-16T19:17:21.427Z,23.77
2018-07-16T19:19:49.609Z,23.79
2018-07-16T19:22:17.746Z,23.96
2018-07-16T19:24:45.916Z,24.09
2018-07-16T19:27:13.932Z,24.19
2018-07-16T19:29:42.936Z,24.23
2018-07-16T19:32:11.158Z,24.26
2018-07-16T19:34:39.512Z,24.30
2018-07-16T19:37:09.299Z,24.21
2018-07-16T19:39:37.418Z,24.20
2018-07-16T19:42:05.459Z,24.21
2018-07-16T19:44:34.368Z,24.02
2018-07-16T19:47:06.193Z,23.92
2018-07-16T19:49:34.609Z,23.93
2018-07-16T19:52:02.549Z,23.89
2018-07-16T19:54:30.575Z,23.92
2018-07-16T19:56:58.791Z,23.90
2018-07-16T19:59:26.810Z,23.97
2018-07-16T20:01:54.869Z,23.91
2018-07-16T20:04:22.840Z,23.86
2018-07-16T20:06:55.376Z,23.77
2018-07-16T20:09:23.387Z,23.84
2018-07-16T20:11:51.399Z,23.70
2018-07-16T20:14:19.395Z,23.53
2018-07-16T20:16:47.411Z,23.18
2018-07-16T20:19:15.532Z,23.27
2018-07-16T20:21:43.500Z,23.18
2018-07-16T20:24:11.445Z,23.23
2018-07-16T20:26:39.478Z,23.22
2018-07-16T20:29:07.546Z,23.29
2018-07-16T20:31:36.332Z,23.37
2018-07-16T20:34:04.392Z,23.47
2018-07-16T20:36:32.388Z,23.45
2018-07-16T20:39:00.308Z,23.53
2018-07-16T20:41:28.351Z,23.62
2018-07-16T20:43:56.410Z,23.30
2018-07-16T20:46:24.482Z,23.08
2018-07-16T20:48:52.419Z,23.21
2018-07-16T20:51:21.060Z,23.41
2018-07-16T20:53:48.983Z,23.71
2018-07-16T20:56:16.906Z,23.75
2018-07-16T20:58:44.823Z,23.72
2018-07-16T21:01:13.015Z,23.48
2018-07-16T21:03:41.067Z,23.45
2018-07-16T21:06:09.057Z,23.38
2018-07-16T21:08:37.077Z,23.37
2018-07-16T21:11:05.024Z,23.41
2018-07-16T21:13:33.103Z,23.48
2018-07-16T21:16:01.143Z,23.38
2018-07-16T21:18:29.296Z,23.38
2018-07-16T21:20:57.601Z,23.41
2018-07-16T21:23:25.549Z,23.41
2018-07-16T21:25:53.522Z,23.39
2018-07-16T21:28:21.474Z,23.32
2018-07-16T21:30:49.556Z,23.33
2018-07-16T21:33:17.561Z,23.37
2018-07-16T21:35:45.666Z,23.33
2018-07-16T21:38:13.680Z,23.17
2018-07-16T21:40:41.747Z,23.06
2018-07-16T21:43:09.628Z,22.90
2018-07-16T21:45:37.692Z,22.86
2018-07-16T21:48:05.826Z,22.98
2018-07-16T21:50:33.827Z,23.04
2018-07-16T21:53:01.854Z,23.11
2018-07-16T21:55:29.766Z,23.09
2018-07-16T21:57:57.752Z,23.08
2018-07-16T22:00:32.687Z,22.90
2018-07-16T22:03:01.117Z,22.78
2018-07-16T22:05:29.650Z,22.77
2018-07-16T22:07:58.848Z,22.86
2018-07-16T22:10:27.431Z,22.91
2018-07-16T22:12:56.455Z,22.86
2018-07-16T22:15:26.328Z,22.86
2018-07-16T22:17:55.148Z,22.86
2018-07-16T22:20:23.989Z,22.90
2018-07-16T22:22:52.232Z,22.86
2018-07-16T22:25:20.674Z,22.82
2018-07-16T22:27:48.543Z,22.73
2018-07-16T22:30:16.609Z,22.59
2018-07-16T22:32:44.624Z,22.49
2018-07-16T22:35:12.793Z,22.36
2018-07-16T22:37:40.776Z,22.07
2018-07-16T22:40:09.256Z,21.70
2018-07-16T22:42:37.555Z,21.62
2018-07-16T22:45:06.311Z,21.57
2018-07-16T22:47:34.332Z,21.45
2018-07-16T22:50:02.221Z,21.30
2018-07-16T22:52:30.312Z,21.25
2018-07-16T22:54:58.303Z,21.17
2018-07-16T22:57:26.614Z,20.97
2018-07-16T22:59:54.576Z,20.87
2018-07-16T23:02:22.631Z,20.83
2018-07-16T23:04:50.556Z,20.75
2018-07-16T23:07:18.763Z,20.69
2018-07-16T23:09:46.662Z,20.59
2018-07-16T23:12:14.529Z,20.62
2018-07-16T23:14:43.761Z,20.58
2018-07-16T23:17:11.943Z,20.55
2018-07-16T23:19:39.998Z,20.46
2018-07-16T23:22:07.961Z,20.46
2018-07-16T23:24:35.960Z,20.43
2018-07-16T23:27:03.918Z,20.39
2018-07-16T23:29:31.891Z,20.28
2018-07-16T23:31:59.830Z,20.24
2018-07-16T23:34:27.765Z,20.10
2018-07-16T23:36:55.688Z,20.05
2018-07-16T23:39:23.671Z,20.03
2018-07-16T23:41:51.655Z,20.00
2018-07-16T23:44:19.666Z,20.15
2018-07-16T23:46:48.160Z,20.20
2018-07-16T23:49:16.069Z,20.35
2018-07-16T23:51:44.067Z,20.40
2018-07-16T23:54:11.988Z,20.42
2018-07-16T23:56:40.625Z,20.44
2018-07-16T23:59:08.653Z,20.42
